sensor_id;sensor_type;location;lat;lon;timestamp;temperature;humidity
67586;SHT31;55785;47.946;20.540;2023-04-23T00:01:14;10.45;62.84
67586;SHT31;55785;47.946;20.540;2023-04-23T00:03:40;10.40;63.18
67586;SHT31;55785;47.946;20.540;2023-04-23T00:06:07;10.42;62.79
67586;SHT31;55785;47.946;20.540;2023-04-23T00:08:33;10.38;62.69
67586;SHT31;55785;47.946;20.540;2023-04-23T00:10:59;10.36;63.25
67586;SHT31;55785;47.946;20.540;2023-04-23T00:13:24;10.33;63.23
67586;SHT31;55785;47.946;20.540;2023-04-23T00:15:50;10.33;62.83
67586;SHT31;55785;47.946;20.540;2023-04-23T00:18:15;10.31;63.51
67586;SHT31;55785;47.946;20.540;2023-04-23T00:20:41;10.29;62.77
67586;SHT31;55785;47.946;20.540;2023-04-23T00:23:06;10.31;63.14
67586;SHT31;55785;47.946;20.540;2023-04-23T00:25:32;10.35;63.76
67586;SHT31;55785;47.946;20.540;2023-04-23T00:27:57;10.32;62.97
67586;SHT31;55785;47.946;20.540;2023-04-23T00:30:22;10.32;63.09
67586;SHT31;55785;47.946;20.540;2023-04-23T00:32:48;10.43;61.97
67586;SHT31;55785;47.946;20.540;2023-04-23T00:35:13;10.40;62.03
67586;SHT31;55785;47.946;20.540;2023-04-23T00:37:38;10.42;62.08
67586;SHT31;55785;47.946;20.540;2023-04-23T00:40:04;10.38;62.84
67586;SHT31;55785;47.946;20.540;2023-04-23T00:42:30;10.40;62.00
67586;SHT31;55785;47.946;20.540;2023-04-23T00:44:56;10.39;63.86
67586;SHT31;55785;47.946;20.540;2023-04-23T00:47:21;10.36;63.06
67586;SHT31;55785;47.946;20.540;2023-04-23T00:49:47;10.35;64.14
67586;SHT31;55785;47.946;20.540;2023-04-23T00:52:13;10.32;64.07
67586;SHT31;55785;47.946;20.540;2023-04-23T00:54:38;10.26;63.44
67586;SHT31;55785;47.946;20.540;2023-04-23T00:57:04;10.29;63.18
67586;SHT31;55785;47.946;20.540;2023-04-23T00:59:30;10.29;62.83
67586;SHT31;55785;47.946;20.540;2023-04-23T01:01:56;10.33;63.92
67586;SHT31;55785;47.946;20.540;2023-04-23T01:04:21;10.31;62.55
67586;SHT31;55785;47.946;20.540;2023-04-23T01:06:48;10.46;61.74
67586;SHT31;55785;47.946;20.540;2023-04-23T01:09:14;10.43;62.39
67586;SHT31;55785;47.946;20.540;2023-04-23T01:11:42;10.49;62.05
67586;SHT31;55785;47.946;20.540;2023-04-23T01:14:08;10.53;62.77
67586;SHT31;55785;47.946;20.540;2023-04-23T01:16:34;10.52;61.63
67586;SHT31;55785;47.946;20.540;2023-04-23T01:19:00;10.52;61.71
67586;SHT31;55785;47.946;20.540;2023-04-23T01:21:25;10.50;62.31
67586;SHT31;55785;47.946;20.540;2023-04-23T01:23:51;10.46;63.64
67586;SHT31;55785;47.946;20.540;2023-04-23T01:26:16;10.38;64.28
67586;SHT31;55785;47.946;20.540;2023-04-23T01:28:42;10.26;64.41
67586;SHT31;55785;47.946;20.540;2023-04-23T01:31:08;10.21;64.38
67586;SHT31;55785;47.946;20.540;2023-04-23T01:33:34;10.18;64.07
67586;SHT31;55785;47.946;20.540;2023-04-23T01:36:00;10.12;64.62
67586;SHT31;55785;47.946;20.540;2023-04-23T01:38:27;10.11;64.45
67586;SHT31;55785;47.946;20.540;2023-04-23T01:40:54;10.11;64.93
67586;SHT31;55785;47.946;20.540;2023-04-23T01:43:20;10.15;63.84
67586;SHT31;55785;47.946;20.540;2023-04-23T01:45:46;10.28;63.05
67586;SHT31;55785;47.946;20.540;2023-04-23T01:48:11;10.28;63.27
67586;SHT31;55785;47.946;20.540;2023-04-23T01:50:37;10.28;64.61
67586;SHT31;55785;47.946;20.540;2023-04-23T01:53:03;10.21;63.90
67586;SHT31;55785;47.946;20.540;2023-04-23T01:55:28;10.22;64.12
67586;SHT31;55785;47.946;20.540;2023-04-23T01:57:54;10.19;63.36
67586;SHT31;55785;47.946;20.540;2023-04-23T02:00:20;10.26;62.98
67586;SHT31;55785;47.946;20.540;2023-04-23T02:02:45;10.26;63.16
67586;SHT31;55785;47.946;20.540;2023-04-23T02:05:15;10.33;62.79
67586;SHT31;55785;47.946;20.540;2023-04-23T02:07:41;10.26;64.22
67586;SHT31;55785;47.946;20.540;2023-04-23T02:10:07;10.25;63.74
67586;SHT31;55785;47.946;20.540;2023-04-23T02:12:32;10.21;63.81
67586;SHT31;55785;47.946;20.540;2023-04-23T02:14:58;10.16;64.68
67586;SHT31;55785;47.946;20.540;2023-04-23T02:17:23;10.12;64.56
67586;SHT31;55785;47.946;20.540;2023-04-23T02:19:49;10.08;64.16
67586;SHT31;55785;47.946;20.540;2023-04-23T02:22:15;10.05;64.54
67586;SHT31;55785;47.946;20.540;2023-04-23T02:24:41;10.02;64.72
67586;SHT31;55785;47.946;20.540;2023-04-23T02:27:07;9.98;64.32
67586;SHT31;55785;47.946;20.540;2023-04-23T02:29:33;10.01;64.18
67586;SHT31;55785;47.946;20.540;2023-04-23T02:31:58;9.95;64.13
67586;SHT31;55785;47.946;20.540;2023-04-23T02:34:23;9.97;63.90
67586;SHT31;55785;47.946;20.540;2023-04-23T02:36:49;9.87;64.50
67586;SHT31;55785;47.946;20.540;2023-04-23T02:39:14;9.92;64.41
67586;SHT31;55785;47.946;20.540;2023-04-23T02:41:39;9.90;64.27
67586;SHT31;55785;47.946;20.540;2023-04-23T02:44:05;9.88;64.32
67586;SHT31;55785;47.946;20.540;2023-04-23T02:46:30;9.78;64.63
67586;SHT31;55785;47.946;20.540;2023-04-23T02:48:55;9.73;64.71
67586;SHT31;55785;47.946;20.540;2023-04-23T02:51:21;9.63;65.30
67586;SHT31;55785;47.946;20.540;2023-04-23T02:53:46;9.50;65.97
67586;SHT31;55785;47.946;20.540;2023-04-23T02:56:11;9.37;66.86
67586;SHT31;55785;47.946;20.540;2023-04-23T02:58:37;9.22;67.09
67586;SHT31;55785;47.946;20.540;2023-04-23T03:01:02;9.11;67.67
67586;SHT31;55785;47.946;20.540;2023-04-23T03:03:29;9.08;67.68
67586;SHT31;55785;47.946;20.540;2023-04-23T03:05:55;9.04;67.49
67586;SHT31;55785;47.946;20.540;2023-04-23T03:08:20;8.95;67.97
67586;SHT31;55785;47.946;20.540;2023-04-23T03:10:45;8.88;68.18
67586;SHT31;55785;47.946;20.540;2023-04-23T03:13:11;8.89;68.40
67586;SHT31;55785;47.946;20.540;2023-04-23T03:15:36;8.81;68.82
67586;SHT31;55785;47.946;20.540;2023-04-23T03:18:01;8.72;68.94
67586;SHT31;55785;47.946;20.540;2023-04-23T03:20:27;8.67;69.08
67586;SHT31;55785;47.946;20.540;2023-04-23T03:22:52;8.68;68.62
67586;SHT31;55785;47.946;20.540;2023-04-23T03:25:18;8.68;68.51
67586;SHT31;55785;47.946;20.540;2023-04-23T03:27:43;8.65;68.59
67586;SHT31;55785;47.946;20.540;2023-04-23T03:30:09;8.64;68.27
67586;SHT31;55785;47.946;20.540;2023-04-23T03:32:35;8.64;68.38
67586;SHT31;55785;47.946;20.540;2023-04-23T03:35:00;8.61;68.26
67586;SHT31;55785;47.946;20.540;2023-04-23T03:37:26;8.57;68.73
67586;SHT31;55785;47.946;20.540;2023-04-23T03:39:52;8.53;69.02
67586;SHT31;55785;47.946;20.540;2023-04-23T03:42:17;8.48;68.78
67586;SHT31;55785;47.946;20.540;2023-04-23T03:44:43;8.43;69.21
67586;SHT31;55785;47.946;20.540;2023-04-23T03:47:08;8.38;69.44
67586;SHT31;55785;47.946;20.540;2023-04-23T03:49:33;8.36;69.31
67586;SHT31;55785;47.946;20.540;2023-04-23T03:51:59;8.36;69.16
67586;SHT31;55785;47.946;20.540;2023-04-23T03:54:24;8.36;69.30
67586;SHT31;55785;47.946;20.540;2023-04-23T03:56:49;8.32;70.04
67586;SHT31;55785;47.946;20.540;2023-04-23T03:59:15;8.32;69.83
67586;SHT31;55785;47.946;20.540;2023-04-23T04:01:40;8.27;69.63
67586;SHT31;55785;47.946;20.540;2023-04-23T04:04:05;8.29;70.06
67586;SHT31;55785;47.946;20.540;2023-04-23T04:06:31;8.30;69.60
67586;SHT31;55785;47.946;20.540;2023-04-23T04:08:56;8.30;69.84
67586;SHT31;55785;47.946;20.540;2023-04-23T04:11:22;8.33;69.84
67586;SHT31;55785;47.946;20.540;2023-04-23T04:13:47;8.30;69.79
67586;SHT31;55785;47.946;20.540;2023-04-23T04:16:12;8.25;70.68
67586;SHT31;55785;47.946;20.540;2023-04-23T04:18:38;8.27;70.24
67586;SHT31;55785;47.946;20.540;2023-04-23T04:21:03;8.36;69.96
67586;SHT31;55785;47.946;20.540;2023-04-23T04:23:28;8.40;70.00
67586;SHT31;55785;47.946;20.540;2023-04-23T04:25:54;8.41;69.88
67586;SHT31;55785;47.946;20.540;2023-04-23T04:28:19;8.46;69.73
67586;SHT31;55785;47.946;20.540;2023-04-23T04:30:45;8.47;69.94
67586;SHT31;55785;47.946;20.540;2023-04-23T04:33:10;8.55;69.63
67586;SHT31;55785;47.946;20.540;2023-04-23T04:35:35;8.55;69.63
67586;SHT31;55785;47.946;20.540;2023-04-23T04:38:01;8.65;69.19
67586;SHT31;55785;47.946;20.540;2023-04-23T04:40:26;8.68;69.27
67586;SHT31;55785;47.946;20.540;2023-04-23T04:42:51;8.78;69.18
67586;SHT31;55785;47.946;20.540;2023-04-23T04:45:17;8.86;70.51
67586;SHT31;55785;47.946;20.540;2023-04-23T04:47:42;8.99;69.87
67586;SHT31;55785;47.946;20.540;2023-04-23T04:50:08;9.16;69.11
67586;SHT31;55785;47.946;20.540;2023-04-23T04:52:34;9.29;68.26
67586;SHT31;55785;47.946;20.540;2023-04-23T04:54:59;9.48;67.46
67586;SHT31;55785;47.946;20.540;2023-04-23T04:57:25;9.73;68.11
67586;SHT31;55785;47.946;20.540;2023-04-23T04:59:50;9.87;65.85
67586;SHT31;55785;47.946;20.540;2023-04-23T05:02:15;10.02;68.04
67586;SHT31;55785;47.946;20.540;2023-04-23T05:04:41;10.16;64.87
67586;SHT31;55785;47.946;20.540;2023-04-23T05:07:06;10.40;65.90
67586;SHT31;55785;47.946;20.540;2023-04-23T05:09:32;10.53;64.49
67586;SHT31;55785;47.946;20.540;2023-04-23T05:11:57;10.69;64.61
67586;SHT31;55785;47.946;20.540;2023-04-23T05:14:22;10.77;65.66
67586;SHT31;55785;47.946;20.540;2023-04-23T05:16:48;10.88;63.66
67586;SHT31;55785;47.946;20.540;2023-04-23T05:19:13;11.03;64.56
67586;SHT31;55785;47.946;20.540;2023-04-23T05:21:38;11.15;63.92
67586;SHT31;55785;47.946;20.540;2023-04-23T05:24:04;11.28;62.56
67586;SHT31;55785;47.946;20.540;2023-04-23T05:26:29;11.45;64.34
67586;SHT31;55785;47.946;20.540;2023-04-23T05:28:55;11.48;63.15
67586;SHT31;55785;47.946;20.540;2023-04-23T05:31:20;11.59;62.64
67586;SHT31;55785;47.946;20.540;2023-04-23T05:33:45;11.82;62.60
67586;SHT31;55785;47.946;20.540;2023-04-23T05:36:10;12.00;60.53
67586;SHT31;55785;47.946;20.540;2023-04-23T05:38:37;12.21;61.58
67586;SHT31;55785;47.946;20.540;2023-04-23T05:41:03;12.38;59.50
67586;SHT31;55785;47.946;20.540;2023-04-23T05:43:28;12.54;59.70
67586;SHT31;55785;47.946;20.540;2023-04-23T05:45:53;12.65;58.96
67586;SHT31;55785;47.946;20.540;2023-04-23T05:48:19;12.89;57.58
67586;SHT31;55785;47.946;20.540;2023-04-23T05:50:44;13.04;59.17
67586;SHT31;55785;47.946;20.540;2023-04-23T05:53:09;13.17;56.32
67586;SHT31;55785;47.946;20.540;2023-04-23T05:55:35;13.39;57.96
67586;SHT31;55785;47.946;20.540;2023-04-23T05:58:00;13.61;58.67
67586;SHT31;55785;47.946;20.540;2023-04-23T06:00:25;13.81;56.77
67586;SHT31;55785;47.946;20.540;2023-04-23T06:02:51;13.89;57.43
67586;SHT31;55785;47.946;20.540;2023-04-23T06:05:16;13.77;54.32
67586;SHT31;55785;47.946;20.540;2023-04-23T06:07:41;13.89;55.33
67586;SHT31;55785;47.946;20.540;2023-04-23T06:10:07;14.02;57.05
67586;SHT31;55785;47.946;20.540;2023-04-23T06:12:32;14.08;55.56
67586;SHT31;55785;47.946;20.540;2023-04-23T06:14:58;14.33;54.58
67586;SHT31;55785;47.946;20.540;2023-04-23T06:17:23;14.59;55.61
67586;SHT31;55785;47.946;20.540;2023-04-23T06:19:48;14.83;56.89
67586;SHT31;55785;47.946;20.540;2023-04-23T06:22:14;14.95;55.65
67586;SHT31;55785;47.946;20.540;2023-04-23T06:24:39;15.01;55.38
67586;SHT31;55785;47.946;20.540;2023-04-23T06:27:04;15.04;58.93
67586;SHT31;55785;47.946;20.540;2023-04-23T06:29:30;14.97;54.50
67586;SHT31;55785;47.946;20.540;2023-04-23T06:31:56;15.08;56.35
67586;SHT31;55785;47.946;20.540;2023-04-23T06:34:22;15.43;58.39
67586;SHT31;55785;47.946;20.540;2023-04-23T06:36:49;15.64;58.09
67586;SHT31;55785;47.946;20.540;2023-04-23T06:39:14;15.84;47.89
67586;SHT31;55785;47.946;20.540;2023-04-23T06:41:39;15.97;48.48
67586;SHT31;55785;47.946;20.540;2023-04-23T06:44:05;15.98;43.78
67586;SHT31;55785;47.946;20.540;2023-04-23T06:46:30;16.17;49.23
67586;SHT31;55785;47.946;20.540;2023-04-23T06:48:55;16.08;42.11
67586;SHT31;55785;47.946;20.540;2023-04-23T06:51:24;16.12;45.90
67586;SHT31;55785;47.946;20.540;2023-04-23T06:53:50;16.15;40.45
67586;SHT31;55785;47.946;20.540;2023-04-23T06:56:15;16.15;40.32
67586;SHT31;55785;47.946;20.540;2023-04-23T06:58:40;16.28;42.29
67586;SHT31;55785;47.946;20.540;2023-04-23T07:01:06;16.38;41.81
67586;SHT31;55785;47.946;20.540;2023-04-23T07:03:31;16.48;43.07
67586;SHT31;55785;47.946;20.540;2023-04-23T07:05:57;16.63;41.26
67586;SHT31;55785;47.946;20.540;2023-04-23T07:08:22;16.70;43.17
67586;SHT31;55785;47.946;20.540;2023-04-23T07:10:48;16.70;41.88
67586;SHT31;55785;47.946;20.540;2023-04-23T07:13:14;16.84;43.62
67586;SHT31;55785;47.946;20.540;2023-04-23T07:15:39;16.87;47.89
67586;SHT31;55785;47.946;20.540;2023-04-23T07:18:05;17.17;45.41
67586;SHT31;55785;47.946;20.540;2023-04-23T07:20:30;17.11;43.85
67586;SHT31;55785;47.946;20.540;2023-04-23T07:22:56;17.11;43.95
67586;SHT31;55785;47.946;20.540;2023-04-23T07:25:22;17.07;45.66
67586;SHT31;55785;47.946;20.540;2023-04-23T07:27:47;17.00;45.38
67586;SHT31;55785;47.946;20.540;2023-04-23T07:30:13;17.06;43.71
67586;SHT31;55785;47.946;20.540;2023-04-23T07:32:38;17.14;44.94
67586;SHT31;55785;47.946;20.540;2023-04-23T07:35:04;17.20;42.59
67586;SHT31;55785;47.946;20.540;2023-04-23T07:37:29;17.11;42.23
67586;SHT31;55785;47.946;20.540;2023-04-23T07:39:55;17.26;46.24
67586;SHT31;55785;47.946;20.540;2023-04-23T07:42:20;17.54;46.86
67586;SHT31;55785;47.946;20.540;2023-04-23T07:44:45;17.64;45.97
67586;SHT31;55785;47.946;20.540;2023-04-23T07:47:11;17.75;44.27
67586;SHT31;55785;47.946;20.540;2023-04-23T07:49:36;17.72;46.08
67586;SHT31;55785;47.946;20.540;2023-04-23T07:52:01;17.64;43.20
67586;SHT31;55785;47.946;20.540;2023-04-23T07:54:27;17.59;44.03
67586;SHT31;55785;47.946;20.540;2023-04-23T07:56:52;17.59;45.71
67586;SHT31;55785;47.946;20.540;2023-04-23T07:59:17;17.61;42.63
67586;SHT31;55785;47.946;20.540;2023-04-23T08:01:43;17.71;47.13
67586;SHT31;55785;47.946;20.540;2023-04-23T08:04:08;17.67;45.11
67586;SHT31;55785;47.946;20.540;2023-04-23T08:06:33;17.96;47.88
67586;SHT31;55785;47.946;20.540;2023-04-23T08:08:59;17.86;42.41
67586;SHT31;55785;47.946;20.540;2023-04-23T08:11:24;17.71;45.26
67586;SHT31;55785;47.946;20.540;2023-04-23T08:13:49;17.62;46.20
67586;SHT31;55785;47.946;20.540;2023-04-23T08:16:15;17.64;44.41
67586;SHT31;55785;47.946;20.540;2023-04-23T08:18:40;17.72;44.72
67586;SHT31;55785;47.946;20.540;2023-04-23T08:21:06;17.81;46.14
67586;SHT31;55785;47.946;20.540;2023-04-23T08:23:31;18.00;46.85
67586;SHT31;55785;47.946;20.540;2023-04-23T08:25:57;18.09;45.85
67586;SHT31;55785;47.946;20.540;2023-04-23T08:28:22;18.20;47.85
67586;SHT31;55785;47.946;20.540;2023-04-23T08:30:47;18.20;43.46
67586;SHT31;55785;47.946;20.540;2023-04-23T08:33:13;18.24;45.13
67586;SHT31;55785;47.946;20.540;2023-04-23T08:35:39;18.24;44.49
67586;SHT31;55785;47.946;20.540;2023-04-23T08:38:04;18.32;45.28
67586;SHT31;55785;47.946;20.540;2023-04-23T08:40:30;18.32;44.74
67586;SHT31;55785;47.946;20.540;2023-04-23T08:42:56;18.40;47.03
67586;SHT31;55785;47.946;20.540;2023-04-23T08:45:23;18.40;44.53
67586;SHT31;55785;47.946;20.540;2023-04-23T08:47:48;18.47;45.42
67586;SHT31;55785;47.946;20.540;2023-04-23T08:50:15;18.57;44.68
67586;SHT31;55785;47.946;20.540;2023-04-23T08:52:52;18.61;44.69
67586;SHT31;55785;47.946;20.540;2023-04-23T08:55:18;18.58;42.57
67586;SHT31;55785;47.946;20.540;2023-04-23T08:57:45;18.61;45.14
67586;SHT31;55785;47.946;20.540;2023-04-23T09:00:12;18.61;41.64
67586;SHT31;55785;47.946;20.540;2023-04-23T09:02:43;18.69;40.51
67586;SHT31;55785;47.946;20.540;2023-04-23T09:05:09;18.78;45.88
67586;SHT31;55785;47.946;20.540;2023-04-23T09:07:35;18.74;42.58
67586;SHT31;55785;47.946;20.540;2023-04-23T09:10:04;18.88;42.42
67586;SHT31;55785;47.946;20.540;2023-04-23T09:12:30;19.03;42.85
67586;SHT31;55785;47.946;20.540;2023-04-23T09:14:55;18.95;41.96
67586;SHT31;55785;47.946;20.540;2023-04-23T09:17:22;19.18;43.97
67586;SHT31;55785;47.946;20.540;2023-04-23T09:19:49;19.20;47.86
67586;SHT31;55785;47.946;20.540;2023-04-23T09:22:47;19.27;44.77
67586;SHT31;55785;47.946;20.540;2023-04-23T09:25:18;19.26;42.49
67586;SHT31;55785;47.946;20.540;2023-04-23T09:27:45;19.33;42.56
67586;SHT31;55785;47.946;20.540;2023-04-23T09:30:11;19.30;41.18
67586;SHT31;55785;47.946;20.540;2023-04-23T09:32:38;19.40;44.54
67586;SHT31;55785;47.946;20.540;2023-04-23T09:35:05;19.45;43.71
67586;SHT31;55785;47.946;20.540;2023-04-23T09:37:31;19.54;43.98
67586;SHT31;55785;47.946;20.540;2023-04-23T09:40:01;19.34;40.80
67586;SHT31;55785;47.946;20.540;2023-04-23T09:42:27;19.45;42.52
67586;SHT31;55785;47.946;20.540;2023-04-23T09:44:56;19.77;43.02
67586;SHT31;55785;47.946;20.540;2023-04-23T09:47:22;19.63;42.37
67586;SHT31;55785;47.946;20.540;2023-04-23T09:49:48;19.78;42.45
67586;SHT31;55785;47.946;20.540;2023-04-23T09:52:13;19.91;43.94
67586;SHT31;55785;47.946;20.540;2023-04-23T09:54:39;19.85;42.06
67586;SHT31;55785;47.946;20.540;2023-04-23T09:57:05;19.90;40.04
67586;SHT31;55785;47.946;20.540;2023-04-23T09:59:30;20.02;48.11
67586;SHT31;55785;47.946;20.540;2023-04-23T10:01:56;20.24;40.91
67586;SHT31;55785;47.946;20.540;2023-04-23T10:04:25;20.45;44.32
67586;SHT31;55785;47.946;20.540;2023-04-23T10:06:59;20.55;42.77
67586;SHT31;55785;47.946;20.540;2023-04-23T10:09:26;20.35;37.31
67586;SHT31;55785;47.946;20.540;2023-04-23T10:11:56;20.02;38.29
67586;SHT31;55785;47.946;20.540;2023-04-23T10:14:23;20.30;43.10
67586;SHT31;55785;47.946;20.540;2023-04-23T10:16:58;20.56;37.68
67586;SHT31;55785;47.946;20.540;2023-04-23T10:19:24;20.75;36.87
67586;SHT31;55785;47.946;20.540;2023-04-23T10:21:53;20.76;33.38
67586;SHT31;55785;47.946;20.540;2023-04-23T10:24:19;20.73;37.84
67586;SHT31;55785;47.946;20.540;2023-04-23T10:26:47;20.62;35.12
67586;SHT31;55785;47.946;20.540;2023-04-23T10:29:14;20.59;36.60
67586;SHT31;55785;47.946;20.540;2023-04-23T10:31:40;20.91;38.78
67586;SHT31;55785;47.946;20.540;2023-04-23T10:34:06;21.03;37.26
67586;SHT31;55785;47.946;20.540;2023-04-23T10:36:34;21.04;38.46
67586;SHT31;55785;47.946;20.540;2023-04-23T10:38:59;20.60;37.96
67586;SHT31;55785;47.946;20.540;2023-04-23T10:41:28;20.48;36.94
67586;SHT31;55785;47.946;20.540;2023-04-23T10:43:56;20.39;41.46
67586;SHT31;55785;47.946;20.540;2023-04-23T10:46:29;20.33;41.78
67586;SHT31;55785;47.946;20.540;2023-04-23T10:49:11;20.36;38.60
67586;SHT31;55785;47.946;20.540;2023-04-23T10:51:37;20.25;40.54
67586;SHT31;55785;47.946;20.540;2023-04-23T10:54:03;20.36;39.57
67586;SHT31;55785;47.946;20.540;2023-04-23T10:56:28;20.40;40.80
67586;SHT31;55785;47.946;20.540;2023-04-23T10:58:54;20.33;36.52
67586;SHT31;55785;47.946;20.540;2023-04-23T11:01:23;20.42;40.26
67586;SHT31;55785;47.946;20.540;2023-04-23T11:03:50;20.46;43.77
67586;SHT31;55785;47.946;20.540;2023-04-23T11:09:36;20.38;35.95
67586;SHT31;55785;47.946;20.540;2023-04-23T11:12:04;20.48;41.10
67586;SHT31;55785;47.946;20.540;2023-04-23T11:14:57;20.32;36.55
67586;SHT31;55785;47.946;20.540;2023-04-23T11:20:10;19.98;43.47
67586;SHT31;55785;47.946;20.540;2023-04-23T11:22:37;19.95;40.03
67586;SHT31;55785;47.946;20.540;2023-04-23T11:25:02;20.07;39.02
67586;SHT31;55785;47.946;20.540;2023-04-23T11:27:29;20.15;35.63
67586;SHT31;55785;47.946;20.540;2023-04-23T11:29:54;20.66;41.47
67586;SHT31;55785;47.946;20.540;2023-04-23T11:32:20;21.03;37.10
67586;SHT31;55785;47.946;20.540;2023-04-23T11:34:46;20.86;37.33
67586;SHT31;55785;47.946;20.540;2023-04-23T11:37:13;20.77;41.03
67586;SHT31;55785;47.946;20.540;2023-04-23T11:39:39;20.50;38.27
67586;SHT31;55785;47.946;20.540;2023-04-23T11:42:16;20.66;37.68
67586;SHT31;55785;47.946;20.540;2023-04-23T11:44:43;21.15;35.49
67586;SHT31;55785;47.946;20.540;2023-04-23T11:47:11;21.73;39.79
67586;SHT31;55785;47.946;20.540;2023-04-23T11:49:38;21.76;34.29
67586;SHT31;55785;47.946;20.540;2023-04-23T11:52:03;21.45;33.94
67586;SHT31;55785;47.946;20.540;2023-04-23T11:54:29;21.08;32.89
67586;SHT31;55785;47.946;20.540;2023-04-23T11:56:55;20.91;35.18
67586;SHT31;55785;47.946;20.540;2023-04-23T11:59:22;21.20;34.32
67586;SHT31;55785;47.946;20.540;2023-04-23T12:01:58;21.41;34.87
67586;SHT31;55785;47.946;20.540;2023-04-23T12:04:25;21.37;34.60
67586;SHT31;55785;47.946;20.540;2023-04-23T12:06:52;20.94;34.79
67586;SHT31;55785;47.946;20.540;2023-04-23T12:09:20;20.45;39.11
67586;SHT31;55785;47.946;20.540;2023-04-23T12:11:46;20.00;35.51
67586;SHT31;55785;47.946;20.540;2023-04-23T12:14:13;20.09;39.52
67586;SHT31;55785;47.946;20.540;2023-04-23T12:16:46;20.53;37.37
67586;SHT31;55785;47.946;20.540;2023-04-23T12:19:15;20.87;34.28
67586;SHT31;55785;47.946;20.540;2023-04-23T12:21:51;21.31;34.99
67586;SHT31;55785;47.946;20.540;2023-04-23T12:24:16;21.20;32.38
67586;SHT31;55785;47.946;20.540;2023-04-23T12:26:42;20.93;34.11
67586;SHT31;55785;47.946;20.540;2023-04-23T12:29:07;20.43;37.55
67586;SHT31;55785;47.946;20.540;2023-04-23T12:31:33;20.24;37.60
67586;SHT31;55785;47.946;20.540;2023-04-23T12:34:02;20.69;38.06
67586;SHT31;55785;47.946;20.540;2023-04-23T12:36:28;21.32;34.57
67586;SHT31;55785;47.946;20.540;2023-04-23T12:38:54;21.83;38.72
67586;SHT31;55785;47.946;20.540;2023-04-23T12:41:19;21.78;31.64
67586;SHT31;55785;47.946;20.540;2023-04-23T12:43:45;21.37;35.33
67586;SHT31;55785;47.946;20.540;2023-04-23T12:46:10;21.41;33.00
67586;SHT31;55785;47.946;20.540;2023-04-23T12:48:35;21.66;36.11
67586;SHT31;55785;47.946;20.540;2023-04-23T12:51:01;21.79;31.91
67586;SHT31;55785;47.946;20.540;2023-04-23T12:53:26;21.90;36.64
67586;SHT31;55785;47.946;20.540;2023-04-23T12:55:51;21.65;30.25
67586;SHT31;55785;47.946;20.540;2023-04-23T12:58:17;21.67;30.12
67586;SHT31;55785;47.946;20.540;2023-04-23T13:00:42;21.72;32.15
67586;SHT31;55785;47.946;20.540;2023-04-23T13:03:08;21.93;29.41
67586;SHT31;55785;47.946;20.540;2023-04-23T13:05:33;22.10;30.40
67586;SHT31;55785;47.946;20.540;2023-04-23T13:07:59;21.99;34.12
67586;SHT31;55785;47.946;20.540;2023-04-23T13:10:24;21.73;34.80
67586;SHT31;55785;47.946;20.540;2023-04-23T13:12:49;21.78;32.70
67586;SHT31;55785;47.946;20.540;2023-04-23T13:15:15;21.81;28.83
67586;SHT31;55785;47.946;20.540;2023-04-23T13:17:40;22.21;29.43
67586;SHT31;55785;47.946;20.540;2023-04-23T13:20:06;22.06;28.42
67586;SHT31;55785;47.946;20.540;2023-04-23T13:22:31;22.00;32.94
67586;SHT31;55785;47.946;20.540;2023-04-23T13:24:57;21.90;31.07
67586;SHT31;55785;47.946;20.540;2023-04-23T13:27:26;22.04;28.83
67586;SHT31;55785;47.946;20.540;2023-04-23T13:29:52;22.23;29.05
67586;SHT31;55785;47.946;20.540;2023-04-23T13:32:17;22.09;32.63
67586;SHT31;55785;47.946;20.540;2023-04-23T13:34:43;21.59;27.97
67586;SHT31;55785;47.946;20.540;2023-04-23T13:37:08;21.55;31.38
67586;SHT31;55785;47.946;20.540;2023-04-23T13:39:37;21.48;33.87
67586;SHT31;55785;47.946;20.540;2023-04-23T13:42:03;21.48;34.33
67586;SHT31;55785;47.946;20.540;2023-04-23T13:44:29;21.49;33.90
67586;SHT31;55785;47.946;20.540;2023-04-23T13:46:54;21.79;30.27
67586;SHT31;55785;47.946;20.540;2023-04-23T13:49:19;21.97;32.57
67586;SHT31;55785;47.946;20.540;2023-04-23T13:51:45;21.82;33.91
67586;SHT31;55785;47.946;20.540;2023-04-23T13:54:10;21.69;32.14
67586;SHT31;55785;47.946;20.540;2023-04-23T13:56:35;21.66;34.16
67586;SHT31;55785;47.946;20.540;2023-04-23T13:59:01;21.86;35.72
67586;SHT31;55785;47.946;20.540;2023-04-23T14:01:27;22.02;34.87
67586;SHT31;55785;47.946;20.540;2023-04-23T14:03:52;22.18;34.77
67586;SHT31;55785;47.946;20.540;2023-04-23T14:06:18;21.99;35.84
67586;SHT31;55785;47.946;20.540;2023-04-23T14:08:43;21.85;35.92
67586;SHT31;55785;47.946;20.540;2023-04-23T14:11:08;21.49;38.70
67586;SHT31;55785;47.946;20.540;2023-04-23T14:13:34;21.27;35.76
67586;SHT31;55785;47.946;20.540;2023-04-23T14:15:59;21.23;34.27
67586;SHT31;55785;47.946;20.540;2023-04-23T14:18:24;21.27;33.74
67586;SHT31;55785;47.946;20.540;2023-04-23T14:20:50;21.35;29.00
67586;SHT31;55785;47.946;20.540;2023-04-23T14:25:52;21.48;31.12
67586;SHT31;55785;47.946;20.540;2023-04-23T14:28:33;21.61;30.08
67586;SHT31;55785;47.946;20.540;2023-04-23T14:31:03;21.79;34.25
67586;SHT31;55785;47.946;20.540;2023-04-23T14:33:28;21.61;36.64
67586;SHT31;55785;47.946;20.540;2023-04-23T14:35:53;21.67;35.42
67586;SHT31;55785;47.946;20.540;2023-04-23T14:38:19;21.72;30.66
67586;SHT31;55785;47.946;20.540;2023-04-23T14:40:44;21.61;36.28
67586;SHT31;55785;47.946;20.540;2023-04-23T14:43:10;21.62;35.91
67586;SHT31;55785;47.946;20.540;2023-04-23T14:45:35;21.25;35.31
67586;SHT31;55785;47.946;20.540;2023-04-23T14:48:00;21.24;34.39
67586;SHT31;55785;47.946;20.540;2023-04-23T14:50:26;21.32;35.32
67586;SHT31;55785;47.946;20.540;2023-04-23T14:52:51;21.37;35.16
67586;SHT31;55785;47.946;20.540;2023-04-23T14:55:17;21.21;35.08
67586;SHT31;55785;47.946;20.540;2023-04-23T14:57:42;20.91;34.19
67586;SHT31;55785;47.946;20.540;2023-04-23T15:00:08;20.59;33.92
67586;SHT31;55785;47.946;20.540;2023-04-23T15:02:34;20.76;33.44
67586;SHT31;55785;47.946;20.540;2023-04-23T15:05:00;20.72;33.51
67586;SHT31;55785;47.946;20.540;2023-04-23T15:07:25;20.96;36.33
67586;SHT31;55785;47.946;20.540;2023-04-23T15:09:50;20.91;37.69
67586;SHT31;55785;47.946;20.540;2023-04-23T15:15:03;20.79;35.41
67586;SHT31;55785;47.946;20.540;2023-04-23T15:17:29;20.96;37.74
67586;SHT31;55785;47.946;20.540;2023-04-23T15:19:54;20.75;34.85
67586;SHT31;55785;47.946;20.540;2023-04-23T15:22:19;20.63;37.03